^^
Datos históricos de la estación: Murcia-Puente Tocinos
Diario Informe para Mayo 24, 2019 Unidades:  Inglés    Métrico   Ambas
Diario Semanal Mensual Anual Configurable
  Máximo: Mínimo: Media:
Temperatura: 74.8 °F 61.3 °F 66.7 °F
Punto de rocio: 61.3 °F 46.6 °F 55.6 °F
Humedad: 86% 37% 69%
Velocidad viento: 18.1mph 0mph 6mph
Racha viento: 26.5mph - -
Viento- - ESE
Presión: 29.9 in 29.8 in -
Precipitación: 0.13 in    
Historical Graphs
 
 
Tabla de datos para Mayo 24, 2019
Hora Temperatura Punto de rocio Presión Viento Velocidad viento Racha viento Humedad Intensidad lluvia(por hora) Nubes
00:04 67.3 °F 61 °F 29.9 in ENE 5.9 mph 8.7 mph 80% 0 in CLR
00:09 66.9 °F 61 °F 29.9 in NNE 6.2 mph 8.1 mph 81% 0 in CLR
00:14 66.7 °F 61.2 °F 29.9 in NNE 6.2 mph 10.4 mph 82% 0 in CLR
00:19 66.6 °F 61 °F 29.9 in ENE 6.9 mph 11.5 mph 82% 0 in CLR
00:24 66.6 °F 61.2 °F 29.9 in NNE 6.9 mph 7.6 mph 83% 0 in CLR
00:29 66.4 °F 61.2 °F 29.9 in NNE 6.2 mph 10.4 mph 83% 0 in CLR
00:34 66.4 °F 61.2 °F 29.9 in NNE 6.2 mph 9.2 mph 83% 0 in CLR
00:39 66.2 °F 61 °F 29.9 in NNE 5.9 mph 6.9 mph 83% 0 in CLR
00:44 66 °F 60.6 °F 29.9 in NNE 5.9 mph 5.8 mph 83% 0 in CLR
00:49 66 °F 61 °F 29.9 in NE 4.7 mph 6.9 mph 84% 0 in CLR
00:54 66 °F 61 °F 29.9 in North 4.7 mph 6.9 mph 84% 0 in CLR
00:59 66 °F 61 °F 29.9 in NNE 4.3 mph 6.9 mph 84% 0 in CLR
01:04 65.8 °F 61 °F 29.9 in NNE 4.3 mph 6.9 mph 84% 0 in CLR
01:09 65.8 °F 61 °F 29.9 in NNE 5.2 mph 6.9 mph 84% 0 in CLR
01:14 65.8 °F 61 °F 29.9 in NNE 5.2 mph 6.9 mph 84% 0 in CLR
01:19 65.7 °F 60.6 °F 29.9 in NNE 4.7 mph 8.1 mph 84% 0 in CLR
01:24 65.7 °F 61 °F 29.9 in NNE 4.7 mph 6.9 mph 85% 0 in CLR
01:29 65.7 °F 61 °F 29.9 in ENE 5.4 mph 8.1 mph 85% 0 in CLR
01:34 65.5 °F 60.8 °F 29.9 in North 5.4 mph 6.9 mph 85% 0 in CLR
01:39 65.7 °F 61 °F 29.9 in NNE 4.7 mph 6.9 mph 85% 0 in CLR
01:44 65.7 °F 60.6 °F 29.9 in North 4.7 mph 5.8 mph 84% 0 in CLR
01:49 65.7 °F 60.6 °F 29.9 in NE 4.7 mph 5.2 mph 84% 0 in CLR
01:54 65.5 °F 60.8 °F 29.9 in ENE 4.7 mph 5.8 mph 85% 0 in CLR
01:59 65.5 °F 60.8 °F 29.9 in NE 3.1 mph 3.5 mph 85% 0 in CLR
02:04 65.5 °F 60.8 °F 29.9 in NE 3.1 mph 4.6 mph 85% 0 in CLR
02:09 65.3 °F 60.6 °F 29.9 in NE 2.9 mph 3.6 mph 85% 0 in CLR
02:14 65.3 °F 61 °F 29.9 in NE 2.9 mph 3.5 mph 86% 0 in CLR
02:19 65.1 °F 60.8 °F 29.9 in NE 2.9 mph 4.6 mph 86% 0 in CLR
02:24 65.1 °F 60.8 °F 29.9 in ENE 2.9 mph 4 mph 86% 0 in CLR
02:29 65.1 °F 60.8 °F 29.9 in ENE 2.9 mph 4.6 mph 86% 0 in CLR
02:34 64.9 °F 60.3 °F 29.9 in East 2.9 mph 4.6 mph 85% 0 in CLR
02:39 64.9 °F 60.3 °F 29.9 in East 2 mph   85% 0 in CLR
02:44 64.9 °F 60.3 °F 29.9 in NW 2 mph 2.9 mph 85% 0 in CLR
02:49 64.9 °F 60.3 °F 29.9 in NW 1.4 mph 4.6 mph 85% 0 in CLR
02:54 64.9 °F 60.1 °F 29.9 in NW 1.4 mph 2.3 mph 84% 0 in CLR
02:59 64.9 °F 60.1 °F 29.9 in North 1.4 mph 3.5 mph 84% 0 in CLR
03:04 64.9 °F 60.1 °F 29.9 in North 1.4 mph 3.5 mph 84% 0 in CLR
03:09 64.9 °F 60.3 °F 29.9 in North 2 mph 2.4 mph 85% 0 in CLR
03:14 64.9 °F 60.3 °F 29.9 in North 2 mph   85% 0 in CLR
03:19 64.9 °F 60.3 °F 29.9 in Calm     85% 0 in CLR
03:24 64.9 °F 60.3 °F 29.9 in Calm     85% 0 in CLR
03:29 64.9 °F 60.3 °F 29.9 in Calm     85% 0 in CLR
03:34 64.9 °F 60.3 °F 29.9 in Calm     85% 0 in CLR
03:39 64.9 °F 60.3 °F 29.9 in Calm     85% 0 in CLR
03:44 64.8 °F 59.7 °F 29.9 in Calm     84% 0 in CLR
03:49 64.6 °F 59.4 °F 29.9 in Calm     83% 0 in CLR
03:54 64.6 °F 59.4 °F 29.9 in Calm     83% 0 in CLR
03:59 64.6 °F 59.4 °F 29.9 in Calm     83% 0 in CLR
04:04 64.4 °F 59.2 °F 29.9 in Calm     83% 0 in CLR
04:09 64.2 °F 58.6 °F 29.9 in Calm   3.6 mph 82% 0 in CLR
04:14 64 °F 58.8 °F 29.9 in Calm     83% 0 in CLR
04:19 63.9 °F 58.3 °F 29.9 in Calm     82% 0 in CLR
04:24 63.9 °F 58.6 °F 29.9 in Calm     83% 0 in CLR
04:29 63.9 °F 58.6 °F 29.9 in Calm     83% 0 in CLR
04:34 63.7 °F 58.5 °F 29.9 in Calm     83% 0 in CLR
04:39 63.7 °F 58.5 °F 29.9 in Calm     83% 0 in CLR
04:44 63.7 °F 58.1 °F 29.9 in Calm   3.5 mph 82% 0 in CLR
04:49 63.7 °F 57.7 °F 29.9 in ESE 1.8 mph 3.5 mph 81% 0 in CLR
04:54 63.9 °F 57.9 °F 29.9 in ESE 1.8 mph 4 mph 81% 0 in CLR
04:59 63.9 °F 57.9 °F 29.9 in South 2 mph 3.5 mph 81% 0 in CLR
05:04 63.9 °F 57.6 °F 29.9 in South 2 mph 2.4 mph 80% 0 in CLR
05:09 63.9 °F 57.6 °F 29.9 in South 2 mph 2.3 mph 80% 0 in CLR
05:14 64 °F 58.1 °F 29.9 in South 2 mph   81% 0 in CLR
05:19 64 °F 57.7 °F 29.9 in SE 1.4 mph 4 mph 80% 0 in CLR
05:24 64.2 °F 57.2 °F 29.9 in South 1.4 mph 4.3 mph 78% 0 in CLR
05:29 64.2 °F 57.2 °F 29.9 in South 3.1 mph 4.6 mph 78% 0 in CLR
05:34 64.2 °F 57.2 °F 29.9 in SE 3.1 mph 5.8 mph 78% 0 in CLR
05:39 64.2 °F 56.8 °F 29.9 in South 3.6 mph 4.6 mph 77% 0 in CLR
05:44 64.2 °F 56.8 °F 29.9 in South 3.6 mph 3.5 mph 77% 0 in CLR
05:49 64.2 °F 56.8 °F 29.9 in South 1.8 mph   77% 0 in CLR
05:54 64.2 °F 56.8 °F 29.9 in South 1.8 mph   77% 0 in CLR
05:59 64.2 °F 56.8 °F 29.9 in Calm     77% 0 in CLR
06:04 64 °F 56.7 °F 29.9 in Calm   2.3 mph 77% 0 in CLR
06:09 63.7 °F 57 °F 29.9 in WNW 1.4 mph 4 mph 79% 0 in CLR
06:14 63.3 °F 57 °F 29.9 in WNW 1.4 mph   80% 0 in CLR
06:19 63.1 °F 57.2 °F 29.9 in NW 1.4 mph 4.6 mph 81% 0 in CLR
06:24 63 °F 57.4 °F 29.9 in NW 1.4 mph 3.6 mph 82% 0 in CLR
06:29 62.6 °F 57.4 °F 29.9 in NW 2.4 mph 2.3 mph 83% 0 in CLR
06:34 62.4 °F 57.2 °F 29.9 in NW 2.4 mph   83% 0 in CLR
06:39 62.2 °F 57 °F 29.9 in Calm     83% 0 in CLR
06:44 62.2 °F 57.4 °F 29.9 in Calm     84% 0 in CLR
06:49 62.2 °F 57.4 °F 29.8 in Calm     84% 0 in CLR
06:54 62.2 °F 56.3 °F 29.8 in Calm     81% 0 in CLR
06:59 62.2 °F 56.3 °F 29.8 in Calm     81% 0 in CLR
07:04 62.2 °F 55.9 °F 29.9 in Calm     80% 0 in CLR
07:09 62.2 °F 56.3 °F 29.9 in Calm   2.3 mph 81% 0 in CLR
07:14 62.4 °F 56.1 °F 29.9 in Calm     80% 0 in CLR
07:19 62.6 °F 55.9 °F 29.9 in Calm   4 mph 79% 0 in CLR
07:24 62.8 °F 55.8 °F 29.9 in Calm   4.6 mph 78% 0 in CLR
07:29 63.1 °F 56.1 °F 29.9 in SSW 2.9 mph 2.3 mph 78% 0 in CLR
07:34 63.3 °F 56.3 °F 29.9 in SSW 2.9 mph 3.5 mph 78% 0 in CLR
07:39 63.5 °F 56.1 °F 29.9 in SSW 1.4 mph 2.3 mph 77% 0 in CLR
07:44 63.7 °F 55.6 °F 29.9 in SE 1.4 mph 3.5 mph 75% 0 in CLR
07:49 63.7 °F 55.2 °F 29.9 in SE 2 mph 3.5 mph 74% 0 in CLR
07:54 63.7 °F 55.2 °F 29.9 in SE 2 mph 4.6 mph 74% 0 in CLR
07:59 63.5 °F 55 °F 29.9 in SSE 2.4 mph 4.6 mph 74% 0 in CLR
08:04 63.5 °F 55 °F 29.9 in South 2.4 mph 4.6 mph 74% 0 in CLR
08:09 63.5 °F 55 °F 29.9 in SE 3.1 mph 4.6 mph 74% 0 in CLR
08:14 63.5 °F 55 °F 29.9 in ESE 3.1 mph 4.6 mph 74% 0 in CLR
08:19 63.9 °F 55.8 °F 29.8 in SE 3.6 mph 4.6 mph 75% 0 in CLR
08:24 64 °F 55.6 °F 29.8 in ESE 3.6 mph 3.5 mph 74% 0 in CLR
08:29 64 °F 55.9 °F 29.8 in SE 3.1 mph 4.6 mph 75% 0 in CLR
08:34 64 °F 55.9 °F 29.9 in SE 3.1 mph 3.5 mph 75% 0 in CLR
08:39 64.2 °F 56.1 °F 29.9 in SE 2 mph 2.4 mph 75% 0 in CLR
08:44 64.2 °F 56.1 °F 29.9 in SE 2 mph 3.5 mph 75% 0 in CLR
08:49 64.6 °F 56.8 °F 29.8 in SE 1.8 mph   76% 0 in CLR
08:54 65.1 °F 57 °F 29.8 in ESE 1.8 mph   75% 0 in CLR
08:59 66 °F 57 °F 29.8 in Calm   2 mph 73% 0 in CLR
09:04 66.7 °F 57 °F 29.8 in Calm     71% 0 in CLR
09:09 66.7 °F 57 °F 29.8 in Calm     71% 0 in CLR
09:14 66.9 °F 56.8 °F 29.8 in Calm     70% 0 in CLR
09:19 66.9 °F 56.8 °F 29.8 in Calm     70% 0 in CLR
09:24 66.9 °F 56.5 °F 29.8 in Calm     69% 0 in CLR
09:29 66.7 °F 56.1 °F 29.8 in Calm   4.7 mph 69% 0 in CLR
09:34 66.6 °F 55.8 °F 29.8 in Calm   4.6 mph 68% 0 in CLR
09:39 66.6 °F 55.8 °F 29.8 in SSW 2.9 mph 2 mph 68% 0 in CLR
09:44 66.7 °F 55.8 °F 29.8 in SE 2.9 mph 4.6 mph 68% 0 in CLR
09:49 66.9 °F 55.6 °F 29.9 in SE 1.8 mph 2.3 mph 67% 0 in CLR
09:54 67.1 °F 56.1 °F 29.9 in West 1.8 mph 2.4 mph 68% 0 in CLR
09:59 67.3 °F 57.2 °F 29.9 in NNE 1.8 mph 4.6 mph 70% 0 in CLR
10:04 67.3 °F 57.2 °F 29.9 in NE 1.8 mph 4.7 mph 70% 0 in CLR
10:09 67.3 °F 57.2 °F 29.9 in NE 2.9 mph 4.6 mph 70% 0 in CLR
10:14 67.1 °F 57.4 °F 29.9 in ENE 2.9 mph 4.7 mph 71% 0 in CLR
10:19 67.3 °F 57.6 °F 29.9 in NE 3.1 mph 4.6 mph 71% 0 in CLR
10:24 67.3 °F 57.6 °F 29.9 in NE 3.1 mph 5.2 mph 71% 0 in CLR
10:29 67.5 °F 57.7 °F 29.9 in NNE 3.6 mph 4.6 mph 71% 0 in CLR
10:34 67.5 °F 57.7 °F 29.9 in NE 3.6 mph 4.7 mph 71% 0 in CLR
10:39 67.5 °F 57.4 °F 29.9 in NE 3.1 mph 3.5 mph 70% 0 in CLR
10:44 67.6 °F 57 °F 29.9 in NE 3.1 mph 6.2 mph 69% 0 in CLR
10:49 67.8 °F 57.4 °F 29.9 in NE 2.9 mph 4.6 mph 69% 0 in CLR
10:54 67.8 °F 57.4 °F 29.9 in NE 2.9 mph 4.6 mph 69% 0 in CLR
10:59 68.2 °F 57.6 °F 29.9 in NNE 2.9 mph 4.6 mph 69% 0 in CLR
11:04 68.2 °F 57.2 °F 29.9 in East 2.9 mph 6.4 mph 68% 0 in CLR
11:09 68.4 °F 57 °F 29.9 in NE 4.3 mph 9.2 mph 67% 0 in CLR
11:14 68.7 °F 56.5 °F 29.9 in NE 4.3 mph 9.2 mph 65% 0 in CLR
11:19 69.1 °F 56.5 °F 29.9 in NNE 6.2 mph 8.1 mph 64% 0 in CLR
11:24 69.4 °F 55.9 °F 29.9 in ENE 6.2 mph 8.1 mph 62% 0 in CLR
11:29 69.6 °F 55 °F 29.9 in North 6.2 mph 12.7 mph 60% 0 in CLR
11:34 70 °F 55.6 °F 29.9 in NE 6.2 mph 15 mph 60% 0 in CLR
11:39 69.8 °F 55.8 °F 29.9 in NNE 8.1 mph 11.5 mph 61% 0 in CLR
11:44 69.8 °F 55.8 °F 29.9 in ENE 8.1 mph 13.8 mph 61% 0 in CLR
11:49 70 °F 56.5 °F 29.9 in ENE 8.7 mph 15 mph 62% 0 in CLR
11:54 70.2 °F 57.4 °F 29.9 in NE 8.7 mph 16.1 mph 64% 0 in CLR
11:59 70.3 °F 57.9 °F 29.9 in NE 8.5 mph 13.7 mph 65% 0 in CLR
12:04 70.2 °F 57.7 °F 29.9 in ENE 8.5 mph 17.3 mph 65% 0 in CLR
12:09 70.3 °F 58.5 °F 29.9 in NE 10.7 mph 12.7 mph 66% 0 in CLR
12:14 70.5 °F 59 °F 29.9 in ENE 10.7 mph 12.7 mph 67% 0 in CLR
12:19 70.9 °F 60.6 °F 29.9 in NE 9.2 mph 20.4 mph 70% 0 in CLR
12:24 70.5 °F 61.2 °F 29.9 in NE 9.2 mph 18.4 mph 72% 0 in CLR
12:29 70.3 °F 61 °F 29.9 in NE 13 mph 17.3 mph 72% 0 in CLR
12:34 70.9 °F 61 °F 29.9 in East 13 mph 11.5 mph 71% 0 in CLR
12:39 71.1 °F 61.2 °F 29.9 in NE 9.7 mph 15 mph 71% 0 in CLR
12:44 70.9 °F 61.3 °F 29.9 in NE 9.7 mph 19.6 mph 72% 0 in CLR
12:49 70.7 °F 61.2 °F 29.9 in North 11.8 mph 15 mph 72% 0 in CLR
12:54 70.7 °F 61.2 °F 29.9 in NNE 11.8 mph 16.1 mph 72% 0 in CLR
12:59 71.1 °F 60.8 °F 29.9 in NE 10.7 mph 16.1 mph 70% 0 in CLR
13:04 71.2 °F 60.1 °F 29.9 in NE 10.7 mph 19.2 mph 68% 0 in CLR
13:09 71.1 °F 60.1 °F 29.9 in North 11.4 mph 18.4 mph 68% 0 in CLR
13:14 71.2 °F 59.7 °F 29.9 in North 11.4 mph 18.4 mph 67% 0 in CLR
13:19 71.4 °F 59.9 °F 29.9 in ENE 14 mph 21.9 mph 67% 0 in CLR
13:24 71.2 °F 59.7 °F 29.9 in NE 14 mph 16.8 mph 67% 0 in CLR
13:29 71.2 °F 60.1 °F 29.9 in North 12.5 mph 15 mph 68% 0 in CLR
13:34 71.8 °F 59.7 °F 29.9 in ENE 12.5 mph 14 mph 66% 0 in CLR
13:39 71.8 °F 58.8 °F 29.9 in NE 10.7 mph 20.7 mph 64% 0 in CLR
13:44 72.1 °F 58.8 °F 29.9 in NE 10.7 mph 12.7 mph 63% 0 in CLR
13:49 72.5 °F 59.2 °F 29.9 in NNE 10.7 mph 13.8 mph 63% 0 in CLR
13:54 72.9 °F 57.7 °F 29.9 in NE 10.7 mph 16.1 mph 59% 0 in CLR
13:59 72.9 °F 58.3 °F 29.9 in NE 10 mph 15 mph 60% 0 in CLR
14:04 73 °F 58.3 °F 29.9 in NE 10 mph 18.4 mph 60% 0 in CLR
14:09 73 °F 57.4 °F 29.9 in East 11.4 mph 18.4 mph 58% 0 in CLR
14:14 73 °F 56.8 °F 29.9 in ENE 11.4 mph 16.1 mph 57% 0 in CLR
14:19 73 °F 55.4 °F 29.9 in NE 11.4 mph 15 mph 54% 0 in CLR
14:24 73 °F 54.3 °F 29.9 in ENE 11.4 mph 17.3 mph 52% 0 in CLR
14:29 73.2 °F 54.5 °F 29.9 in ENE 11.8 mph 17.3 mph 52% 0 in CLR
14:34 73.9 °F 54.7 °F 29.8 in NNE 11.8 mph 15 mph 51% 0 in CLR
14:39 74.3 °F 54 °F 29.8 in NE 10.2 mph 17.8 mph 49% 0 in CLR
14:44 74.3 °F 54 °F 29.8 in East 10.2 mph 19.6 mph 49% 0 in CLR
14:49 74.1 °F 53.8 °F 29.8 in ENE 10.7 mph 19.6 mph 49% 0 in CLR
14:54 73.9 °F 52.3 °F 29.8 in NE 10.7 mph 20.7 mph 47% 0 in CLR
14:59 74.1 °F 53.2 °F 29.8 in NNE 12.3 mph 12.7 mph 48% 0 in CLR
15:04 74.3 °F 52.9 °F 29.8 in ENE 12.3 mph 18.4 mph 47% 0 in CLR
15:09 74.3 °F 53.2 °F 29.8 in NNE 10.2 mph 16.1 mph 48% 0 in CLR
15:14 74.3 °F 51.6 °F 29.8 in NE 10.2 mph 20.7 mph 45% 0 in CLR
15:19 74.7 °F 51.3 °F 29.8 in NE 12.3 mph 24.8 mph 44% 0 in CLR
15:24 74.3 °F 50.4 °F 29.8 in NE 12.3 mph 26.5 mph 43% 0 in CLR
15:29 74.5 °F 49.8 °F 29.8 in NE 15.6 mph 20.7 mph 42% 0 in CLR
15:34 74.8 °F 49.6 °F 29.8 in NE 15.6 mph 12.7 mph 41% 0 in CLR
15:39 74.8 °F 46.8 °F 29.8 in NE 13 mph 20.7 mph 37% 0 in CLR
15:44 74.1 °F 48.9 °F 29.8 in East 13 mph 21.9 mph 41% 0 in CLR
15:49 73.9 °F 49.5 °F 29.8 in NNE 15.6 mph 26.5 mph 42% 0 in CLR
15:54 73.8 °F 51.1 °F 29.8 in ENE 15.6 mph 24.2 mph 45% 0 in CLR
15:59 73.6 °F 49.6 °F 29.8 in ENE 17 mph 24.2 mph 43% 0 in CLR
16:04 73.2 °F 48.7 °F 29.8 in NE 17 mph 26.1 mph 42% 0 in CLR
16:09 73.2 °F 50 °F 29.8 in NNE 18.1 mph 23 mph 44% 0 in CLR
16:14 72.9 °F 50.4 °F 29.8 in NE 18.1 mph 26.5 mph 45% 0 in CLR
16:19 72.9 °F 50.4 °F 29.8 in East 16.3 mph 21.9 mph 45% 0 in CLR
16:24 72.7 °F 50.2 °F 29.8 in NNE 16.3 mph 21.9 mph 45% 0 in CLR
16:29 72 °F 49.5 °F 29.8 in NE 14.7 mph 23 mph 45% 0 in CLR
16:34 72 °F 50 °F 29.8 in East 14.7 mph 20.7 mph 46% 0 in CLR
16:39 72.5 °F 51.1 °F 29.8 in ENE 14.7 mph 18.1 mph 47% 0 in CLR
16:44 72.5 °F 52.2 °F 29.8 in ESE 14.7 mph 20.4 mph 49% 0 in CLR
16:49 72.7 °F 52.3 °F 29.9 in SE 11.8 mph 19.6 mph 49% 0 in CLR
16:54 72.9 °F 52 °F 29.9 in East 11.8 mph 19 mph 48% 0 in CLR
16:59 72.9 °F 52 °F 29.9 in NE 13 mph 23 mph 48% 0 in CLR
17:04 72.9 °F 50.9 °F 29.8 in ENE 13 mph 20.7 mph 46% 0 in CLR
17:09 72.3 °F 47.8 °F 29.8 in East 13 mph 18.4 mph 42% 0 in CLR
17:14 72.1 °F 48.4 °F 29.8 in NE 13 mph 15 mph 43% 0 in CLR
17:19 72 °F 48.9 °F 29.9 in NE 12.3 mph 16.1 mph 44% 0 in CLR
17:24 71.8 °F 47.5 °F 29.9 in NE 12.3 mph 20.8 mph 42% 0 in CLR
17:29 71.4 °F 46.6 °F 29.9 in NNE 12.5 mph 18.4 mph 41% 0 in CLR
17:34 71.2 °F 47.7 °F 29.9 in NNE 12.5 mph 20.7 mph 43% 0 in CLR
17:39 71.1 °F 46.8 °F 29.9 in ENE 13 mph 19.6 mph 42% 0 in CLR
17:44 70.9 °F 47.3 °F 29.9 in NE 13 mph 25.3 mph 43% 0 in CLR
17:49 70.5 °F 46.9 °F 29.8 in NE 14.5 mph 18.4 mph 43% 0 in CLR
17:54 70.3 °F 48.6 °F 29.8 in NE 14.5 mph 21.9 mph 46% 0 in CLR
17:59 70 °F 48.2 °F 29.8 in NE 11.8 mph 21.9 mph 46% 0 in CLR
18:04 69.6 °F 48.6 °F 29.8 in NE 11.8 mph 21.3 mph 47% 0 in CLR
18:09 69.4 °F 48.4 °F 29.8 in East 13.5 mph 17.3 mph 47% 0 in CLR
18:14 69.3 °F 48.7 °F 29.8 in NW 13.5 mph 19.6 mph 48% 0 in CLR
18:19 69.1 °F 49.6 °F 29.9 in North 13 mph 21.9 mph 50% 0 in CLR
18:24 68.9 °F 49.5 °F 29.9 in NE 13 mph 16.1 mph 50% 0 in CLR
18:29 68.9 °F 49.5 °F 29.9 in NE 12.3 mph 21.9 mph 50% 0 in CLR
18:34 68.7 °F 49.3 °F 29.9 in ENE 12.3 mph 20.7 mph 50% 0 in CLR
18:39 68.7 °F 49.8 °F 29.9 in ENE 14.5 mph 17.3 mph 51% 0 in CLR
18:44 68.5 °F 49.6 °F 29.9 in NE 14.5 mph 18.4 mph 51% 0 in CLR
18:49 68.5 °F 49.6 °F 29.9 in ESE 13 mph 18.4 mph 51% 0 in CLR
18:54 68.4 °F 50 °F 29.9 in NNE 13 mph 20.7 mph 52% 0 in CLR
18:59 68.4 °F 50.5 °F 29.9 in NNE 10.7 mph 12.7 mph 53% 0 in CLR
19:04 68.2 °F 50.4 °F 29.9 in NE 10.7 mph 11.4 mph 53% 0 in CLR
19:09 67.8 °F 49.5 °F 29.9 in NE 10 mph 18.4 mph 52% 0 in CLR
19:14 67.6 °F 49.8 °F 29.9 in NNE 10 mph 19.6 mph 53% 0 in CLR
19:19 67.5 °F 50.2 °F 29.9 in NE 13 mph 17.3 mph 54% 0 in CLR
19:24 67.3 °F 50.5 °F 29.9 in NE 13 mph 12.7 mph 55% 0 in CLR
19:29 66.9 °F 51.3 °F 29.9 in NNE 10 mph 9.2 mph 57% 0 in CLR
19:34 66.7 °F 52 °F 29.9 in NNE 10 mph 9.2 mph 59% 0 in CLR
19:39 66.4 °F 51.3 °F 29.9 in North 5.9 mph 6.9 mph 58% 0 in CLR
19:44 66 °F 51.3 °F 29.9 in North 5.9 mph 5.8 mph 59% 0.02 in RA
19:49 65.8 °F 52 °F 29.9 in NNW 3.6 mph 4.7 mph 61% 0.03 in RA
19:54 65.3 °F 52.9 °F 29.9 in NE 3.6 mph 6.9 mph 64% 0.04 in RA
19:59 64.6 °F 53.1 °F 29.9 in ENE 4 mph 9.2 mph 66% 0.05 in RA
20:04 63.7 °F 51.6 °F 29.9 in NNE 4 mph 11.5 mph 65% 0.06 in RA
20:09 63.1 °F 52 °F 29.9 in NE 7.4 mph 11.5 mph 67% 0.07 in RA
20:14 62.6 °F 52.7 °F 29.9 in East 7.4 mph 11.5 mph 70% 0.09 in RA
20:19 62.2 °F 53.4 °F 29.9 in NE 8.1 mph 12.7 mph 73% 0.11 in RA
20:24 61.9 °F 54 °F 29.9 in NE 8.1 mph 8.1 mph 75% 0.13 in RA
20:29 61.5 °F 53.2 °F 29.9 in NNE 6.2 mph 10.7 mph 74% 0.13 in RA
20:34 61.5 °F 52.9 °F 29.9 in NE 6.2 mph 6.9 mph 73% 0.13 in CLR
20:39 61.5 °F 52.9 °F 29.9 in NE 5.9 mph 8.1 mph 73% 0.13 in CLR
20:44 61.5 °F 52.9 °F 29.9 in NNW 5.9 mph 8.1 mph 73% 0.11 in CLR
20:49 61.5 °F 52 °F 29.9 in NE 4 mph 5.8 mph 71% 0.1 in CLR
20:54 61.7 °F 51.8 °F 29.9 in ENE 4 mph 9.7 mph 70% 0.09 in CLR
20:59 61.7 °F 52.2 °F 29.9 in NNE 4.7 mph 6.9 mph 71% 0.08 in CLR
21:04 61.9 °F 53.1 °F 29.9 in NNW 4.7 mph 5.8 mph 73% 0.07 in CLR
21:09 61.7 °F 53.2 °F 29.9 in NW 4 mph 7.4 mph 74% 0.06 in CLR
21:14 61.5 °F 53.4 °F 29.9 in WNW 4 mph 6.9 mph 75% 0.04 in CLR
21:19 61.5 °F 54 °F 29.9 in NW 4.7 mph 5.8 mph 76% 0.02 in CLR
21:24 61.3 °F 54.1 °F 29.9 in West 4.7 mph 4.6 mph 77% 0 in CLR
21:29 61.5 °F 54.1 °F 29.9 in WSW 3.1 mph 4.6 mph 77% 0 in CLR
21:34 61.5 °F 54 °F 29.9 in West 3.1 mph 4.6 mph 76% 0 in CLR
21:39 61.7 °F 53.8 °F 29.9 in West 2.9 mph 5.2 mph 75% 0 in CLR
21:44 61.9 °F 54 °F 29.9 in West 2.9 mph 6.9 mph 75% 0 in CLR
21:49 61.9 °F 54 °F 29.9 in WNW 4 mph 5.4 mph 75% 0 in CLR
21:54 61.9 °F 54 °F 29.9 in West 4 mph 5.8 mph 75% 0 in CLR
21:59 61.9 °F 54 °F 29.9 in NW 4 mph 6.9 mph 75% 0 in CLR
22:04 61.9 °F 53.4 °F 29.9 in WSW 4 mph 4.7 mph 74% 0 in CLR
22:09 62.1 °F 53.8 °F 29.9 in West 3.6 mph 5.8 mph 74% 0 in CLR
22:14 62.1 °F 53.8 °F 29.9 in SW 3.6 mph 5.8 mph 74% 0 in CLR
22:19 62.1 °F 53.2 °F 29.9 in West 3.1 mph 6.9 mph 73% 0 in CLR
22:24 62.2 °F 53.4 °F 29.9 in WNW 3.1 mph 5.8 mph 73% 0 in CLR
22:29 62.2 °F 53.1 °F 29.9 in WSW 3.1 mph 4.6 mph 72% 0 in CLR
22:34 62.2 °F 53.1 °F 29.9 in West 3.1 mph 3.5 mph 72% 0 in CLR
22:39 62.4 °F 53.6 °F 29.9 in West 2 mph 4.6 mph 73% 0 in CLR
22:44 62.4 °F 53.2 °F 29.9 in SW 2 mph 4.6 mph 72% 0 in CLR
22:49 62.4 °F 52.9 °F 29.9 in SW 3.1 mph 4.6 mph 71% 0 in CLR
22:54 62.4 °F 52.9 °F 29.9 in SW 3.1 mph 4.7 mph 71% 0 in CLR
22:59 62.6 °F 53.4 °F 29.9 in South 3.1 mph 5.8 mph 72% 0 in CLR
23:04 62.4 °F 54 °F 29.9 in South 3.1 mph 5.8 mph 74% 0 in CLR
23:09 62.1 °F 54 °F 29.9 in SSW 4.7 mph 8.1 mph 75% 0 in CLR
23:14 61.7 °F 54.1 °F 29.9 in SSW 4.7 mph 8.1 mph 76% 0 in CLR
23:19 61.5 °F 53.4 °F 29.9 in SSW 6.2 mph 8.1 mph 75% 0 in CLR
23:24 61.5 °F 53.4 °F 29.9 in South 6.2 mph 9.2 mph 75% 0 in CLR
23:29 61.5 °F 53.4 °F 29.9 in SSW 5.9 mph 8.1 mph 75% 0 in CLR
23:34 61.5 °F 53.2 °F 29.9 in SSW 5.9 mph 6.9 mph 74% 0 in CLR
23:39 61.5 °F 53.2 °F 29.9 in SW 5.2 mph 6.9 mph 74% 0 in CLR
23:44 61.5 °F 53.2 °F 29.9 in SSW 5.2 mph 4.7 mph 74% 0 in CLR
23:49 61.5 °F 52.9 °F 29.9 in SW 4.3 mph 8.1 mph 73% 0 in CLR
23:54 61.5 °F 52.9 °F 29.9 in SW 4.3 mph 6.9 mph 73% 0 in CLR
23:59 61.5 °F 52.9 °F 29.9 in WSW 4.3 mph 8.1 mph 73% 0 in CLR
Murcia-Puente Tocinos, España
Compliments of Weather Underground - 2.75 mb

La estación de MeteoMurcia.com, publica sus datos en los siguientes proyectos:

Weather Underground PWS IMURCIAP2 Meteoclimatic www.awekas.at

W3Counter
Web Analytics